createdAt,value
2018-10-21T00:01:36.550Z,6.60
2018-10-21T00:04:05.325Z,6.60
2018-10-21T00:06:33.860Z,6.60
2018-10-21T00:09:02.427Z,6.60
2018-10-21T00:11:30.970Z,6.50
2018-10-21T00:13:59.590Z,6.40
2018-10-21T00:16:28.163Z,6.40
2018-10-21T00:18:56.761Z,6.40
2018-10-21T00:21:25.293Z,6.40
2018-10-21T00:23:53.885Z,6.30
2018-10-21T00:26:22.391Z,6.30
2018-10-21T00:28:50.878Z,6.30
2018-10-21T00:31:19.378Z,6.20
2018-10-21T00:33:47.985Z,6.20
2018-10-21T00:36:16.472Z,6.10
2018-10-21T00:38:44.915Z,6.10
2018-10-21T00:41:13.475Z,6.00
2018-10-21T00:43:41.997Z,6.00
2018-10-21T00:46:11.407Z,6.00
2018-10-21T00:48:39.858Z,6.00
2018-10-21T00:51:08.585Z,6.10
2018-10-21T00:53:37.089Z,6.20
2018-10-21T00:56:05.747Z,6.10
2018-10-21T00:58:34.221Z,6.20
2018-10-21T01:01:02.710Z,6.20
2018-10-21T01:03:31.200Z,6.20
2018-10-21T01:06:00.289Z,6.20
2018-10-21T01:08:28.834Z,6.20
2018-10-21T01:10:57.460Z,6.20
2018-10-21T01:13:26.042Z,6.10
2018-10-21T01:15:54.535Z,6.00
2018-10-21T01:18:22.994Z,6.00
2018-10-21T01:20:51.532Z,5.90
2018-10-21T01:23:20.032Z,5.90
2018-10-21T01:25:48.626Z,5.90
2018-10-21T01:28:17.185Z,5.90
2018-10-21T01:30:45.630Z,5.90
2018-10-21T01:33:14.307Z,5.90
2018-10-21T01:35:42.759Z,5.90
2018-10-21T01:38:12.145Z,6.00
2018-10-21T01:40:41.777Z,5.90
2018-10-21T01:43:11.573Z,6.00
2018-10-21T01:45:40.110Z,5.90
2018-10-21T01:48:09.865Z,6.00
2018-10-21T01:50:39.045Z,5.90
2018-10-21T01:53:08.900Z,5.90
2018-10-21T01:55:37.381Z,5.90
2018-10-21T01:58:06.151Z,5.80
2018-10-21T02:00:35.071Z,5.70
2018-10-21T02:03:04.196Z,5.70
2018-10-21T02:05:33.256Z,5.70
2018-10-21T02:08:01.876Z,5.70
2018-10-21T02:10:30.372Z,5.70
2018-10-21T02:12:58.983Z,5.70
2018-10-21T02:15:27.623Z,5.60
2018-10-21T02:17:56.186Z,5.60
2018-10-21T02:20:25.167Z,5.50
2018-10-21T02:22:54.457Z,5.50
2018-10-21T02:25:23.051Z,5.50
2018-10-21T02:27:52.171Z,5.50
2018-10-21T02:30:21.918Z,5.60
2018-10-21T02:32:51.108Z,5.50
2018-10-21T02:35:20.036Z,5.40
2018-10-21T02:37:48.786Z,5.40
2018-10-21T02:41:32.281Z,5.30
2018-10-21T02:44:00.779Z,5.30
2018-10-21T02:46:29.548Z,5.20
2018-10-21T02:48:58.856Z,5.20
2018-10-21T02:51:27.386Z,5.10
2018-10-21T02:53:55.865Z,5.10
2018-10-21T02:56:24.595Z,5.10
2018-10-21T02:58:53.125Z,5.10
2018-10-21T03:01:21.702Z,5.10
2018-10-21T03:03:50.274Z,5.10
2018-10-21T03:06:18.901Z,5.10
2018-10-21T03:08:47.419Z,5.10
2018-10-21T03:11:15.945Z,5.00
2018-10-21T03:13:44.433Z,5.00
2018-10-21T03:16:12.987Z,5.00
2018-10-21T03:18:41.587Z,5.00
2018-10-21T03:21:10.168Z,5.00
2018-10-21T03:23:38.763Z,5.10
2018-10-21T03:26:07.384Z,5.10
2018-10-21T03:28:35.998Z,5.20
2018-10-21T03:31:04.529Z,5.30
2018-10-21T03:33:33.260Z,5.30
2018-10-21T03:36:01.777Z,5.30
2018-10-21T03:38:30.298Z,5.20
2018-10-21T03:40:58.994Z,5.20
2018-10-21T03:43:28.219Z,5.10
2018-10-21T03:45:56.836Z,5.10
2018-10-21T03:48:25.368Z,5.20
2018-10-21T03:50:53.905Z,5.30
2018-10-21T03:53:22.374Z,5.20
2018-10-21T03:55:50.854Z,5.20
2018-10-21T03:58:19.483Z,5.30
2018-10-21T04:00:48.048Z,5.20
2018-10-21T04:03:16.611Z,5.20
2018-10-21T04:05:45.206Z,5.20
2018-10-21T04:08:14.530Z,5.10
2018-10-21T04:10:43.078Z,5.10
2018-10-21T04:13:11.662Z,5.10
2018-10-21T04:15:40.372Z,4.90
2018-10-21T04:18:08.838Z,5.00
2018-10-21T04:20:37.426Z,4.90
2018-10-21T04:23:05.973Z,4.90
2018-10-21T04:25:35.977Z,4.90
2018-10-21T04:28:04.979Z,5.00
2018-10-21T04:30:40.955Z,5.00
2018-10-21T04:33:16.584Z,5.00
2018-10-21T04:35:45.275Z,5.00
2018-10-21T04:38:27.131Z,5.00
2018-10-21T04:40:55.618Z,5.10
2018-10-21T04:43:24.207Z,5.10
2018-10-21T04:45:52.774Z,5.00
2018-10-21T04:48:21.487Z,5.00
2018-10-21T04:50:49.929Z,4.90
2018-10-21T04:53:18.440Z,4.90
2018-10-21T04:55:47.034Z,4.90
2018-10-21T04:58:16.233Z,4.80
2018-10-21T05:00:44.710Z,4.80
2018-10-21T05:03:13.128Z,4.80
2018-10-21T05:05:41.791Z,4.80
2018-10-21T05:08:11.222Z,4.70
2018-10-21T05:10:40.309Z,4.60
2018-10-21T05:13:09.736Z,4.70
2018-10-21T05:15:39.419Z,4.60
2018-10-21T05:18:08.107Z,4.60
2018-10-21T05:20:36.588Z,4.60
2018-10-21T05:23:05.324Z,4.50
2018-10-21T05:25:33.842Z,4.50
2018-10-21T05:28:02.498Z,4.50
2018-10-21T05:30:30.934Z,4.50
2018-10-21T05:32:59.438Z,4.60
2018-10-21T05:35:27.965Z,4.60
2018-10-21T05:37:57.299Z,4.60
2018-10-21T05:40:25.829Z,4.60
2018-10-21T05:42:54.349Z,4.50
2018-10-21T05:45:23.020Z,4.50
2018-10-21T05:47:51.551Z,4.50
2018-10-21T05:50:20.906Z,4.40
2018-10-21T05:52:50.125Z,4.50
2018-10-21T05:55:18.607Z,4.50
2018-10-21T05:57:47.118Z,4.40
2018-10-21T06:00:17.163Z,4.50
2018-10-21T06:02:45.649Z,4.50
2018-10-21T06:05:32.929Z,4.50
2018-10-21T06:08:01.427Z,4.50
2018-10-21T06:10:30.045Z,4.50
2018-10-21T06:12:58.827Z,4.50
2018-10-21T06:15:27.752Z,4.50
2018-10-21T06:17:56.304Z,4.60
2018-10-21T06:20:28.364Z,4.60
2018-10-21T06:22:57.034Z,4.50
2018-10-21T06:25:25.546Z,4.60
2018-10-21T06:27:54.126Z,4.60
2018-10-21T06:30:22.578Z,4.60
2018-10-21T06:32:51.201Z,4.60
2018-10-21T06:35:19.667Z,4.70
2018-10-21T06:37:48.244Z,4.60
2018-10-21T06:40:16.732Z,4.60
2018-10-21T06:42:45.365Z,4.60
2018-10-21T06:45:13.984Z,4.60
2018-10-21T06:47:42.863Z,4.60
2018-10-21T06:50:15.568Z,4.70
2018-10-21T06:52:44.054Z,4.70
2018-10-21T06:55:13.085Z,4.80
2018-10-21T06:57:41.915Z,4.90
2018-10-21T07:00:10.624Z,5.00
2018-10-21T07:02:39.175Z,5.00
2018-10-21T07:06:17.685Z,5.10
2018-10-21T07:08:47.795Z,5.10
2018-10-21T07:11:16.393Z,5.20
2018-10-21T07:13:45.214Z,5.30
2018-10-21T07:16:14.214Z,5.30
2018-10-21T07:18:43.527Z,5.40
2018-10-21T07:21:12.238Z,5.50
2018-10-21T07:23:40.933Z,5.60
2018-10-21T07:26:09.531Z,5.60
2018-10-21T07:28:38.256Z,5.70
2018-10-21T07:31:06.659Z,5.70
2018-10-21T07:33:35.232Z,5.80
2018-10-21T07:36:03.740Z,5.90
2018-10-21T07:38:32.311Z,6.00
2018-10-21T07:41:00.771Z,6.10
2018-10-21T07:43:29.314Z,6.20
2018-10-21T07:45:57.967Z,6.30
2018-10-21T07:48:26.609Z,6.50
2018-10-21T07:50:55.217Z,6.60
2018-10-21T07:53:23.834Z,6.70
2018-10-21T07:55:52.573Z,6.80
2018-10-21T07:58:21.073Z,6.90
2018-10-21T08:00:49.651Z,7.10
2018-10-21T08:03:18.264Z,7.40
2018-10-21T08:05:57.926Z,7.50
2018-10-21T08:08:27.269Z,7.60
2018-10-21T08:10:56.045Z,7.60
2018-10-21T08:13:25.976Z,7.60
2018-10-21T08:15:54.537Z,7.70
2018-10-21T08:18:23.006Z,7.90
2018-10-21T08:20:51.899Z,7.90
2018-10-21T08:23:20.550Z,7.90
2018-10-21T08:25:50.216Z,7.90
2018-10-21T08:28:18.926Z,8.10
2018-10-21T08:30:47.308Z,8.20
2018-10-21T08:33:15.955Z,8.30
2018-10-21T08:35:44.546Z,8.40
2018-10-21T08:38:13.072Z,8.50
2018-10-21T08:40:41.606Z,8.60
2018-10-21T08:43:10.232Z,8.60
2018-10-21T08:45:38.716Z,8.80
2018-10-21T08:48:07.338Z,8.90
2018-10-21T08:50:35.906Z,9.00
2018-10-21T08:53:04.607Z,9.00
2018-10-21T08:55:33.166Z,9.20
2018-10-21T08:58:01.842Z,9.40
2018-10-21T09:00:30.393Z,9.60
2018-10-21T09:02:59.066Z,9.70
2018-10-21T09:05:27.696Z,9.80
2018-10-21T09:07:56.150Z,9.90
2018-10-21T09:10:24.724Z,10.10
2018-10-21T09:12:53.197Z,10.20
2018-10-21T09:15:21.790Z,10.20
2018-10-21T09:17:50.300Z,10.30
2018-10-21T09:20:19.371Z,10.40
2018-10-21T09:22:47.872Z,10.40
2018-10-21T09:25:16.388Z,10.60
2018-10-21T09:27:45.364Z,10.70
2018-10-21T09:30:15.806Z,10.70
2018-10-21T09:32:44.356Z,10.80
2018-10-21T09:35:14.727Z,10.80
2018-10-21T09:37:43.483Z,10.90
2018-10-21T09:40:14.355Z,11.00
2018-10-21T09:42:43.086Z,11.10
2018-10-21T09:45:13.812Z,11.20
2018-10-21T09:47:42.769Z,11.30
2018-10-21T09:50:11.564Z,11.40
2018-10-21T09:52:40.108Z,11.50
2018-10-21T09:55:14.380Z,11.60
2018-10-21T09:57:43.460Z,11.70
2018-10-21T10:00:12.372Z,11.80
2018-10-21T10:02:46.142Z,11.80
2018-10-21T10:05:14.727Z,11.70
2018-10-21T10:07:43.202Z,11.90
2018-10-21T10:10:12.045Z,11.90
2018-10-21T10:12:40.514Z,12.00
2018-10-21T10:15:09.774Z,12.10
2018-10-21T10:17:38.313Z,12.20
2018-10-21T10:20:08.504Z,12.30
2018-10-21T10:22:37.175Z,12.40
2018-10-21T10:25:07.110Z,12.50
2018-10-21T10:27:35.577Z,12.60
2018-10-21T10:30:04.378Z,12.60
2018-10-21T10:32:33.072Z,12.60
2018-10-21T10:35:01.641Z,12.70
2018-10-21T10:37:31.002Z,12.80
2018-10-21T10:39:59.582Z,12.80
2018-10-21T10:42:29.070Z,12.90
2018-10-21T10:44:57.595Z,13.00
2018-10-21T10:47:26.245Z,13.00
2018-10-21T10:49:54.746Z,13.10
2018-10-21T10:52:23.443Z,13.10
2018-10-21T10:54:51.996Z,13.10
2018-10-21T10:57:20.621Z,13.20
2018-10-21T10:59:49.320Z,13.30
2018-10-21T11:02:17.811Z,13.30
2018-10-21T11:04:46.596Z,13.30
2018-10-21T11:07:15.239Z,13.40
2018-10-21T11:09:43.671Z,13.50
2018-10-21T11:12:12.203Z,13.60
2018-10-21T11:14:40.942Z,13.70
2018-10-21T11:17:09.441Z,13.80
2018-10-21T11:19:37.972Z,13.80
2018-10-21T11:22:06.648Z,13.90
2018-10-21T11:24:39.332Z,14.00
2018-10-21T11:27:08.139Z,14.00
2018-10-21T11:29:36.862Z,14.00
2018-10-21T11:32:05.384Z,14.00
2018-10-21T11:34:33.916Z,14.10
2018-10-21T11:37:02.586Z,14.20
2018-10-21T11:39:31.119Z,14.10
2018-10-21T11:41:59.598Z,14.30
2018-10-21T11:44:28.215Z,14.30
2018-10-21T11:46:57.563Z,14.40
2018-10-21T11:49:26.099Z,14.40
2018-10-21T11:51:54.727Z,14.30
2018-10-21T11:54:23.335Z,14.30
2018-10-21T11:56:51.898Z,14.40
2018-10-21T11:59:20.508Z,14.40
2018-10-21T12:01:49.165Z,14.50
2018-10-21T12:04:17.708Z,14.50
2018-10-21T12:06:46.333Z,14.60
2018-10-21T12:09:14.919Z,14.60
2018-10-21T12:11:43.468Z,14.60
2018-10-21T12:14:12.082Z,14.60
2018-10-21T12:16:40.819Z,14.60
2018-10-21T12:19:09.444Z,14.40
2018-10-21T12:21:37.894Z,14.40
2018-10-21T12:24:06.564Z,14.50
2018-10-21T12:26:35.246Z,14.70
2018-10-21T12:29:04.442Z,14.80
2018-10-21T12:31:33.110Z,14.80
2018-10-21T12:34:01.703Z,14.80
2018-10-21T12:36:30.304Z,14.90
2018-10-21T12:38:58.893Z,14.90
2018-10-21T12:41:27.403Z,14.90
2018-10-21T12:43:55.945Z,14.90
2018-10-21T12:46:24.581Z,14.80
2018-10-21T12:48:53.114Z,14.90
2018-10-21T12:51:21.774Z,14.90
2018-10-21T12:53:50.308Z,15.00
2018-10-21T12:56:18.998Z,15.00
2018-10-21T12:58:47.611Z,15.10
2018-10-21T13:01:16.246Z,15.10
2018-10-21T13:03:44.858Z,15.00
2018-10-21T13:06:13.523Z,15.00
2018-10-21T13:08:42.131Z,14.90
2018-10-21T13:11:10.640Z,14.90
2018-10-21T13:13:39.262Z,14.90
2018-10-21T13:16:07.828Z,15.00
2018-10-21T13:18:36.471Z,15.00
2018-10-21T13:21:05.109Z,15.00
2018-10-21T13:23:33.554Z,15.00
2018-10-21T13:26:02.292Z,15.00
2018-10-21T13:28:30.834Z,15.10
2018-10-21T13:31:00.421Z,15.20
2018-10-21T13:33:29.022Z,15.20
2018-10-21T13:36:00.354Z,15.20
2018-10-21T13:38:28.873Z,15.20
2018-10-21T13:40:57.443Z,15.30
2018-10-21T13:43:26.054Z,15.30
2018-10-21T13:45:54.860Z,15.30
2018-10-21T13:48:23.403Z,15.20
2018-10-21T13:50:51.913Z,15.30
2018-10-21T13:53:20.571Z,15.20
2018-10-21T13:55:50.060Z,15.30
2018-10-21T13:58:18.869Z,15.30
2018-10-21T14:00:47.591Z,15.30
2018-10-21T14:03:16.170Z,15.30
2018-10-21T14:05:44.783Z,15.30
2018-10-21T14:08:13.340Z,15.30
2018-10-21T14:10:42.354Z,15.30
2018-10-21T14:13:11.044Z,15.30
2018-10-21T14:15:39.574Z,15.30
2018-10-21T14:18:08.988Z,15.30
2018-10-21T14:20:37.536Z,15.20
2018-10-21T14:23:06.965Z,15.30
2018-10-21T14:25:35.543Z,15.30
2018-10-21T14:28:04.342Z,15.30
2018-10-21T14:30:33.784Z,15.30
2018-10-21T14:33:02.480Z,15.30
2018-10-21T14:35:30.971Z,15.30
2018-10-21T14:38:00.240Z,15.30
2018-10-21T14:40:29.015Z,15.20
2018-10-21T14:42:57.539Z,15.20
2018-10-21T14:45:26.216Z,15.20
2018-10-21T14:47:54.725Z,15.20
2018-10-21T14:50:23.384Z,15.20
2018-10-21T14:52:51.892Z,15.20
2018-10-21T14:55:20.376Z,15.20
2018-10-21T14:57:48.927Z,15.10
2018-10-21T15:00:17.603Z,15.10
2018-10-21T15:02:46.056Z,15.10
2018-10-21T15:05:14.608Z,15.10
2018-10-21T15:07:45.223Z,15.10
2018-10-21T15:10:13.876Z,15.00
2018-10-21T15:12:42.518Z,15.10
2018-10-21T15:15:11.671Z,15.00
2018-10-21T15:17:40.397Z,15.00
2018-10-21T15:20:10.940Z,15.00
2018-10-21T15:22:39.773Z,14.90
2018-10-21T15:25:10.046Z,14.80
2018-10-21T15:27:38.951Z,14.80
2018-10-21T15:30:08.462Z,14.80
2018-10-21T15:32:37.154Z,14.80
2018-10-21T15:35:06.423Z,14.80
2018-10-21T15:37:35.073Z,14.70
2018-10-21T15:40:03.906Z,14.60
2018-10-21T15:42:32.781Z,14.60
2018-10-21T15:45:01.415Z,14.60
2018-10-21T15:47:29.957Z,14.50
2018-10-21T15:49:58.743Z,14.50
2018-10-21T15:52:27.258Z,14.40
2018-10-21T15:54:56.372Z,14.40
2018-10-21T15:57:24.899Z,14.30
2018-10-21T15:59:53.438Z,14.20
2018-10-21T16:02:22.023Z,14.10
2018-10-21T16:04:50.656Z,14.00
2018-10-21T16:07:19.155Z,13.90
2018-10-21T16:09:47.763Z,13.70
2018-10-21T16:12:16.500Z,13.60
2018-10-21T16:14:45.130Z,13.50
2018-10-21T16:17:13.810Z,13.40
2018-10-21T16:19:42.450Z,13.30
2018-10-21T16:22:11.084Z,13.20
2018-10-21T16:24:39.615Z,13.00
2018-10-21T16:27:08.169Z,12.90
2018-10-21T16:29:36.709Z,12.80
2018-10-21T16:32:05.855Z,12.60
2018-10-21T16:34:34.293Z,12.60
2018-10-21T16:37:02.997Z,12.40
2018-10-21T16:39:31.587Z,12.30
2018-10-21T16:42:00.177Z,12.20
2018-10-21T16:44:28.768Z,12.10
2018-10-21T16:46:57.871Z,12.00
2018-10-21T16:49:26.567Z,11.90
2018-10-21T16:51:55.333Z,11.80
2018-10-21T16:54:24.122Z,11.80
2018-10-21T16:56:52.591Z,11.60
2018-10-21T16:59:21.219Z,11.60
2018-10-21T17:01:49.654Z,11.50
2018-10-21T17:04:18.336Z,11.40
2018-10-21T17:06:47.038Z,11.30
2018-10-21T17:09:15.670Z,11.30
2018-10-21T17:11:44.753Z,11.20
2018-10-21T17:14:13.327Z,11.10
2018-10-21T17:16:41.977Z,11.10
2018-10-21T17:19:10.636Z,11.00
2018-10-21T17:21:39.688Z,11.00
2018-10-21T17:24:08.456Z,10.90
2018-10-21T17:26:37.110Z,10.90
2018-10-21T17:29:06.074Z,10.80
2018-10-21T17:31:34.661Z,10.70
2018-10-21T17:34:03.224Z,10.70
2018-10-21T17:36:31.935Z,10.60
2018-10-21T17:39:00.517Z,10.50
2018-10-21T17:41:29.053Z,10.50
2018-10-21T17:43:57.895Z,10.50
2018-10-21T17:46:26.537Z,10.40
2018-10-21T17:48:55.215Z,10.40
2018-10-21T17:51:23.888Z,10.30
2018-10-21T17:53:52.419Z,10.30
2018-10-21T17:56:21.098Z,10.20
2018-10-21T17:58:51.018Z,10.20
2018-10-21T18:01:19.628Z,10.20
2018-10-21T18:03:48.234Z,10.10
2018-10-21T18:06:16.811Z,10.10
2018-10-21T18:08:45.422Z,10.10
2018-10-21T18:11:14.081Z,10.00
2018-10-21T18:13:42.619Z,10.00
2018-10-21T18:16:11.479Z,10.00
2018-10-21T18:18:40.056Z,10.00
2018-10-21T18:21:08.573Z,9.90
2018-10-21T18:23:37.157Z,9.90
2018-10-21T18:26:05.997Z,9.90
2018-10-21T18:28:34.611Z,9.80
2018-10-21T18:31:03.247Z,9.80
2018-10-21T18:33:31.983Z,9.70
2018-10-21T18:36:00.899Z,9.80
2018-10-21T18:38:29.539Z,9.70
2018-10-21T18:40:58.452Z,9.70
2018-10-21T18:43:26.894Z,9.60
2018-10-21T18:45:55.475Z,9.60
2018-10-21T18:48:24.194Z,9.60
2018-10-21T18:50:52.713Z,9.60
2018-10-21T18:53:21.323Z,9.50
2018-10-21T18:55:50.046Z,9.50
2018-10-21T18:58:18.773Z,9.50
2018-10-21T19:00:47.594Z,9.50
2018-10-21T19:03:16.294Z,9.50
2018-10-21T19:05:45.159Z,9.40
2018-10-21T19:08:14.012Z,9.50
2018-10-21T19:10:42.603Z,9.40
2018-10-21T19:13:11.310Z,9.40
2018-10-21T19:15:39.919Z,9.30
2018-10-21T19:18:08.496Z,9.30
2018-10-21T19:20:37.216Z,9.30
2018-10-21T19:23:06.035Z,9.20
2018-10-21T19:25:34.722Z,9.20
2018-10-21T19:28:03.547Z,9.10
2018-10-21T19:30:32.183Z,9.00
2018-10-21T19:33:00.845Z,9.00
2018-10-21T19:35:29.387Z,8.90
2018-10-21T19:37:58.179Z,8.90
2018-10-21T19:40:27.929Z,8.80
2018-10-21T19:42:56.572Z,8.80
2018-10-21T19:45:25.191Z,8.80
2018-10-21T19:47:53.767Z,8.70
2018-10-21T19:50:22.694Z,8.80
2018-10-21T19:52:51.293Z,8.70
2018-10-21T19:55:20.610Z,8.70
2018-10-21T19:57:49.304Z,8.70
2018-10-21T20:00:17.949Z,8.70
2018-10-21T20:02:47.658Z,8.70
2018-10-21T20:05:16.291Z,8.60
2018-10-21T20:07:45.228Z,8.60
2018-10-21T20:10:14.848Z,8.50
2018-10-21T20:12:43.375Z,8.50
2018-10-21T20:15:12.663Z,8.60
2018-10-21T20:17:41.367Z,8.60
2018-10-21T20:20:10.687Z,8.50
2018-10-21T20:22:39.334Z,8.60
2018-10-21T20:25:09.228Z,8.50
2018-10-21T20:27:37.982Z,8.50
2018-10-21T20:30:07.990Z,8.50
2018-10-21T20:32:36.713Z,8.50
2018-10-21T20:35:06.500Z,8.50
2018-10-21T20:37:35.468Z,8.40
2018-10-21T20:40:05.434Z,8.40
2018-10-21T20:42:34.067Z,8.30
2018-10-21T20:45:02.800Z,8.30
2018-10-21T20:47:31.421Z,8.20
2018-10-21T20:50:00.594Z,8.20
2018-10-21T20:52:29.200Z,8.20
2018-10-21T20:54:57.744Z,8.20
2018-10-21T20:57:26.428Z,8.20
2018-10-21T20:59:55.079Z,8.10
2018-10-21T21:02:23.640Z,8.10
2018-10-21T21:04:52.232Z,8.10
2018-10-21T21:07:21.344Z,8.10
2018-10-21T21:09:49.933Z,8.10
2018-10-21T21:12:18.718Z,8.00
2018-10-21T21:14:47.196Z,8.00
2018-10-21T21:17:15.812Z,8.00
2018-10-21T21:19:44.402Z,8.00
2018-10-21T21:22:13.057Z,7.90
2018-10-21T21:24:41.649Z,7.90
2018-10-21T21:27:10.251Z,7.90
2018-10-21T21:29:38.819Z,7.90
2018-10-21T21:32:07.399Z,8.00
2018-10-21T21:34:35.931Z,8.00
2018-10-21T21:37:04.656Z,7.90
2018-10-21T21:39:33.219Z,7.90
2018-10-21T21:42:01.862Z,7.90
2018-10-21T21:44:30.446Z,7.90
2018-10-21T21:46:59.075Z,7.80
2018-10-21T21:49:27.767Z,7.80
2018-10-21T21:51:56.375Z,7.70
2018-10-21T21:54:25.025Z,7.70
2018-10-21T21:56:53.567Z,7.60
2018-10-21T21:59:22.075Z,7.60
2018-10-21T22:01:50.662Z,7.60
2018-10-21T22:04:19.468Z,7.50
2018-10-21T22:06:47.904Z,7.50
2018-10-21T22:09:16.567Z,7.50
2018-10-21T22:11:45.157Z,7.50
2018-10-21T22:14:13.703Z,7.50
2018-10-21T22:16:42.387Z,7.50
2018-10-21T22:19:10.922Z,7.50
2018-10-21T22:21:39.555Z,7.50
2018-10-21T22:24:09.218Z,7.60
2018-10-21T22:26:37.751Z,7.60
2018-10-21T22:29:06.689Z,7.50
2018-10-21T22:31:35.254Z,7.50
2018-10-21T22:34:03.855Z,7.40
2018-10-21T22:36:32.340Z,7.30
2018-10-21T22:39:00.964Z,7.30
2018-10-21T22:41:29.488Z,7.20
2018-10-21T22:43:58.200Z,7.20
2018-10-21T22:46:27.598Z,7.20
2018-10-21T22:48:56.262Z,7.10
2018-10-21T22:51:24.853Z,7.10
2018-10-21T22:53:53.290Z,7.00
2018-10-21T22:56:21.770Z,7.00
2018-10-21T22:58:50.297Z,7.00
2018-10-21T23:01:18.793Z,7.00
2018-10-21T23:03:47.480Z,7.00
2018-10-21T23:06:16.015Z,7.00
2018-10-21T23:08:45.160Z,7.00
2018-10-21T23:11:14.500Z,7.00
2018-10-21T23:13:43.036Z,7.00
2018-10-21T23:16:11.654Z,6.90
2018-10-21T23:18:40.202Z,6.90
2018-10-21T23:21:08.736Z,6.90
2018-10-21T23:23:37.387Z,6.90
2018-10-21T23:26:06.022Z,6.90
2018-10-21T23:28:34.611Z,6.90
2018-10-21T23:31:03.154Z,6.70
2018-10-21T23:33:31.835Z,6.70
2018-10-21T23:36:00.534Z,6.70
2018-10-21T23:38:29.132Z,6.70
2018-10-21T23:40:57.651Z,6.60
2018-10-21T23:43:26.104Z,6.60
2018-10-21T23:45:54.746Z,6.50
2018-10-21T23:48:24.159Z,6.50
2018-10-21T23:50:52.624Z,6.50
2018-10-21T23:53:21.166Z,6.50
2018-10-21T23:55:49.651Z,6.50
2018-10-21T23:58:18.979Z,6.60
